sensor_id;sensor_type;location;lat;lon;timestamp;pressure;altitude;pressure_sealevel;temperature;humidity
48968;BME280;46511;53.148;8.204;2023-06-22T00:02:24;102038.63;;;19.36;100.00
48968;BME280;46511;53.148;8.204;2023-06-22T00:04:55;102042.50;;;19.32;100.00
48968;BME280;46511;53.148;8.204;2023-06-22T00:07:22;102040.03;;;19.29;100.00
48968;BME280;46511;53.148;8.204;2023-06-22T00:09:53;102041.88;;;19.28;100.00
48968;BME280;46511;53.148;8.204;2023-06-22T00:12:24;102047.88;;;19.32;100.00
48968;BME280;46511;53.148;8.204;2023-06-22T00:14:56;102045.13;;;19.33;100.00
48968;BME280;46511;53.148;8.204;2023-06-22T00:17:27;102053.19;;;19.33;100.00
48968;BME280;46511;53.148;8.204;2023-06-22T00:19:58;102057.50;;;19.36;100.00
48968;BME280;46511;53.148;8.204;2023-06-22T00:22:31;102049.41;;;19.36;100.00
48968;BME280;46511;53.148;8.204;2023-06-22T00:25:02;102054.78;;;19.36;100.00
48968;BME280;46511;53.148;8.204;2023-06-22T00:27:34;102052.84;;;19.38;100.00
48968;BME280;46511;53.148;8.204;2023-06-22T00:30:01;102044.75;;;19.38;100.00
48968;BME280;46511;53.148;8.204;2023-06-22T00:32:33;102045.00;;;19.35;100.00
48968;BME280;46511;53.148;8.204;2023-06-22T00:34:59;102046.06;;;19.32;100.00
48968;BME280;46511;53.148;8.204;2023-06-22T00:37:31;102049.09;;;19.28;100.00
48968;BME280;46511;53.148;8.204;2023-06-22T00:40:02;102039.31;;;19.27;100.00
48968;BME280;46511;53.148;8.204;2023-06-22T00:42:35;102039.00;;;19.19;100.00
48968;BME280;46511;53.148;8.204;2023-06-22T00:45:07;102046.97;;;19.20;100.00
48968;BME280;46511;53.148;8.204;2023-06-22T00:47:39;102046.00;;;19.21;100.00
48968;BME280;46511;53.148;8.204;2023-06-22T00:50:10;102043.94;;;19.25;100.00
48968;BME280;46511;53.148;8.204;2023-06-22T00:52:44;102043.47;;;19.31;100.00
48968;BME280;46511;53.148;8.204;2023-06-22T00:55:17;102038.31;;;19.28;100.00
48968;BME280;46511;53.148;8.204;2023-06-22T00:57:49;102035.63;;;19.28;100.00
48968;BME280;46511;53.148;8.204;2023-06-22T01:00:22;102032.19;;;19.26;100.00
48968;BME280;46511;53.148;8.204;2023-06-22T01:02:55;102042.13;;;19.25;100.00
48968;BME280;46511;53.148;8.204;2023-06-22T01:05:21;102039.31;;;19.27;100.00
48968;BME280;46511;53.148;8.204;2023-06-22T01:08:00;102039.41;;;19.25;100.00
48968;BME280;46511;53.148;8.204;2023-06-22T01:13:14;102029.31;;;19.16;100.00
48968;BME280;46511;53.148;8.204;2023-06-22T01:15:58;102019.84;;;19.10;100.00
48968;BME280;46511;53.148;8.204;2023-06-22T01:18:40;102023.63;;;19.08;100.00
48968;BME280;46511;53.148;8.204;2023-06-22T01:21:08;102027.28;;;19.07;100.00
48968;BME280;46511;53.148;8.204;2023-06-22T01:29:31;102022.47;;;18.99;100.00
48968;BME280;46511;53.148;8.204;2023-06-22T01:32:04;102020.44;;;18.90;100.00
48968;BME280;46511;53.148;8.204;2023-06-22T01:34:37;102026.91;;;18.75;100.00
48968;BME280;46511;53.148;8.204;2023-06-22T01:37:11;102030.25;;;18.66;100.00
48968;BME280;46511;53.148;8.204;2023-06-22T01:39:43;102028.94;;;18.59;100.00
48968;BME280;46511;53.148;8.204;2023-06-22T01:42:16;102019.59;;;18.51;100.00
48968;BME280;46511;53.148;8.204;2023-06-22T01:44:48;102024.97;;;18.51;100.00
48968;BME280;46511;53.148;8.204;2023-06-22T01:47:20;102024.97;;;18.51;100.00
48968;BME280;46511;53.148;8.204;2023-06-22T01:49:53;102019.03;;;18.46;100.00
48968;BME280;46511;53.148;8.204;2023-06-22T01:52:24;102011.41;;;18.40;100.00
48968;BME280;46511;53.148;8.204;2023-06-22T01:54:56;102008.16;;;18.35;100.00
48968;BME280;46511;53.148;8.204;2023-06-22T01:57:28;102008.38;;;18.32;100.00
48968;BME280;46511;53.148;8.204;2023-06-22T02:00:02;102015.91;;;18.27;100.00
48968;BME280;46511;53.148;8.204;2023-06-22T02:02:54;102021.63;;;18.22;100.00
48968;BME280;46511;53.148;8.204;2023-06-22T02:05:34;102016.34;;;18.21;100.00
48968;BME280;46511;53.148;8.204;2023-06-22T02:08:13;102018.69;;;18.13;100.00
48968;BME280;46511;53.148;8.204;2023-06-22T02:10:50;102023.63;;;18.06;100.00
48968;BME280;46511;53.148;8.204;2023-06-22T02:13:24;102028.38;;;18.03;100.00
48968;BME280;46511;53.148;8.204;2023-06-22T02:15:56;102024.25;;;17.97;100.00
48968;BME280;46511;53.148;8.204;2023-06-22T02:18:28;102019.50;;;17.88;100.00
48968;BME280;46511;53.148;8.204;2023-06-22T02:20:59;102027.47;;;17.89;100.00
48968;BME280;46511;53.148;8.204;2023-06-22T02:23:31;102026.50;;;17.90;100.00
48968;BME280;46511;53.148;8.204;2023-06-22T02:26:05;102023.72;;;17.92;100.00
48968;BME280;46511;53.148;8.204;2023-06-22T02:28:37;102027.38;;;17.91;100.00
48968;BME280;46511;53.148;8.204;2023-06-22T02:31:08;102035.00;;;17.97;100.00
48968;BME280;46511;53.148;8.204;2023-06-22T02:33:39;102030.72;;;17.94;100.00
48968;BME280;46511;53.148;8.204;2023-06-22T02:36:11;102031.88;;;17.90;100.00
48968;BME280;46511;53.148;8.204;2023-06-22T02:38:44;102034.78;;;17.87;100.00
48968;BME280;46511;53.148;8.204;2023-06-22T02:41:19;102032.09;;;17.87;100.00
48968;BME280;46511;53.148;8.204;2023-06-22T02:43:50;102030.25;;;17.88;100.00
48968;BME280;46511;53.148;8.204;2023-06-22T02:46:22;102039.28;;;17.87;100.00
48968;BME280;46511;53.148;8.204;2023-06-22T02:48:53;102033.06;;;17.86;100.00
48968;BME280;46511;53.148;8.204;2023-06-22T02:51:24;102028.75;;;17.84;100.00
48968;BME280;46511;53.148;8.204;2023-06-22T02:53:56;102029.63;;;17.84;100.00
48968;BME280;46511;53.148;8.204;2023-06-22T02:56:28;102024.88;;;17.88;100.00
48968;BME280;46511;53.148;8.204;2023-06-22T02:59:01;102022.13;;;18.02;100.00
48968;BME280;46511;53.148;8.204;2023-06-22T03:01:33;102028.03;;;17.94;100.00
48968;BME280;46511;53.148;8.204;2023-06-22T03:04:10;102036.31;;;17.91;100.00
48968;BME280;46511;53.148;8.204;2023-06-22T03:06:41;102036.44;;;18.03;100.00
48968;BME280;46511;53.148;8.204;2023-06-22T03:09:13;102037.06;;;18.06;100.00
48968;BME280;46511;53.148;8.204;2023-06-22T03:11:44;102036.44;;;18.03;100.00
48968;BME280;46511;53.148;8.204;2023-06-22T03:14:15;102033.75;;;18.03;100.00
48968;BME280;46511;53.148;8.204;2023-06-22T03:16:47;102029.34;;;18.02;100.00
48968;BME280;46511;53.148;8.204;2023-06-22T03:19:18;102028.38;;;18.03;100.00
48968;BME280;46511;53.148;8.204;2023-06-22T03:21:51;102037.19;;;18.05;100.00
48968;BME280;46511;53.148;8.204;2023-06-22T03:24:22;102036.00;;;18.09;100.00
48968;BME280;46511;53.148;8.204;2023-06-22T03:26:53;102042.16;;;18.11;100.00
48968;BME280;46511;53.148;8.204;2023-06-22T03:29:25;102042.91;;;18.13;100.00
48968;BME280;46511;53.148;8.204;2023-06-22T03:31:57;102040.84;;;18.16;100.00
48968;BME280;46511;53.148;8.204;2023-06-22T03:34:28;102040.44;;;18.22;100.00
48968;BME280;46511;53.148;8.204;2023-06-22T03:36:59;102042.81;;;18.27;100.00
48968;BME280;46511;53.148;8.204;2023-06-22T03:39:31;102049.25;;;18.37;100.00
48968;BME280;46511;53.148;8.204;2023-06-22T03:42:03;102039.81;;;18.44;100.00
48968;BME280;46511;53.148;8.204;2023-06-22T03:44:35;102043.69;;;18.53;100.00
48968;BME280;46511;53.148;8.204;2023-06-22T03:47:07;102044.13;;;18.60;100.00
48968;BME280;46511;53.148;8.204;2023-06-22T03:49:39;102045.63;;;18.64;100.00
48968;BME280;46511;53.148;8.204;2023-06-22T03:52:10;102041.34;;;18.74;100.00
48968;BME280;46511;53.148;8.204;2023-06-22T03:54:42;102042.50;;;18.82;100.00
48968;BME280;46511;53.148;8.204;2023-06-22T03:57:13;102050.78;;;18.92;100.00
48968;BME280;46511;53.148;8.204;2023-06-22T03:59:45;102040.03;;;19.05;100.00
48968;BME280;46511;53.148;8.204;2023-06-22T04:02:16;102040.66;;;19.08;100.00
48968;BME280;46511;53.148;8.204;2023-06-22T04:04:47;102053.56;;;19.16;100.00
48968;BME280;46511;53.148;8.204;2023-06-22T04:07:18;102048.13;;;19.29;100.00
48968;BME280;46511;53.148;8.204;2023-06-22T04:09:50;102049.16;;;19.39;100.00
48968;BME280;46511;53.148;8.204;2023-06-22T04:12:21;102051.31;;;19.47;100.00
48968;BME280;46511;53.148;8.204;2023-06-22T04:14:52;102049.34;;;19.61;100.00
48968;BME280;46511;53.148;8.204;2023-06-22T04:17:24;102053.06;;;19.72;100.00
48968;BME280;46511;53.148;8.204;2023-06-22T04:19:56;102045.03;;;19.83;100.00
48968;BME280;46511;53.148;8.204;2023-06-22T04:22:27;102043.09;;;19.96;100.00
48968;BME280;46511;53.148;8.204;2023-06-22T04:24:58;102044.81;;;19.97;100.00
48968;BME280;46511;53.148;8.204;2023-06-22T04:27:29;102037.00;;;20.05;100.00
48968;BME280;46511;53.148;8.204;2023-06-22T04:30:01;102035.09;;;20.18;100.00
48968;BME280;46511;53.148;8.204;2023-06-22T04:32:27;102031.53;;;20.18;100.00
48968;BME280;46511;53.148;8.204;2023-06-22T04:34:58;102027.22;;;20.15;100.00
48968;BME280;46511;53.148;8.204;2023-06-22T04:37:31;102024.41;;;20.17;100.00
48968;BME280;46511;53.148;8.204;2023-06-22T04:40:03;102037.31;;;20.36;100.00
48968;BME280;46511;53.148;8.204;2023-06-22T04:42:37;102033.59;;;20.49;100.00
48968;BME280;46511;53.148;8.204;2023-06-22T04:45:09;102035.44;;;20.71;100.00
48968;BME280;46511;53.148;8.204;2023-06-22T04:47:41;102035.09;;;20.87;100.00
48968;BME280;46511;53.148;8.204;2023-06-22T04:50:12;102025.84;;;21.01;100.00
48968;BME280;46511;53.148;8.204;2023-06-22T04:52:44;102034.69;;;21.25;100.00
48968;BME280;46511;53.148;8.204;2023-06-22T04:55:16;102028.91;;;21.19;100.00
48968;BME280;46511;53.148;8.204;2023-06-22T04:57:49;102019.03;;;21.51;100.00
48968;BME280;46511;53.148;8.204;2023-06-22T05:00:20;102018.38;;;21.70;100.00
48968;BME280;46511;53.148;8.204;2023-06-22T05:02:54;102010.81;;;21.53;100.00
48968;BME280;46511;53.148;8.204;2023-06-22T05:05:27;102011.22;;;21.26;100.00
48968;BME280;46511;53.148;8.204;2023-06-22T05:08:00;102007.56;;;21.27;100.00
48968;BME280;46511;53.148;8.204;2023-06-22T05:10:32;102023.38;;;21.31;100.00
48968;BME280;46511;53.148;8.204;2023-06-22T05:13:04;102014.06;;;21.02;100.00
48968;BME280;46511;53.148;8.204;2023-06-22T05:15:35;102011.13;;;21.27;100.00
48968;BME280;46511;53.148;8.204;2023-06-22T05:18:10;102012.28;;;21.46;100.00
48968;BME280;46511;53.148;8.204;2023-06-22T05:20:42;102007.09;;;21.54;100.00
48968;BME280;46511;53.148;8.204;2023-06-22T05:23:14;102011.03;;;21.61;100.00
48968;BME280;46511;53.148;8.204;2023-06-22T05:25:45;102025.34;;;21.29;100.00
48968;BME280;46511;53.148;8.204;2023-06-22T05:28:17;102017.47;;;21.37;100.00
48968;BME280;46511;53.148;8.204;2023-06-22T05:30:53;102008.56;;;21.58;100.00
48968;BME280;46511;53.148;8.204;2023-06-22T05:33:25;102012.06;;;21.37;100.00
48968;BME280;46511;53.148;8.204;2023-06-22T05:35:56;101997.31;;;21.74;100.00
48968;BME280;46511;53.148;8.204;2023-06-22T05:38:27;102001.78;;;21.09;100.00
48968;BME280;46511;53.148;8.204;2023-06-22T05:40:59;102001.25;;;21.37;100.00
48968;BME280;46511;53.148;8.204;2023-06-22T05:43:30;102002.34;;;21.99;100.00
48968;BME280;46511;53.148;8.204;2023-06-22T05:46:02;101992.91;;;22.35;100.00
48968;BME280;46511;53.148;8.204;2023-06-22T05:48:34;101994.09;;;22.73;100.00
48968;BME280;46511;53.148;8.204;2023-06-22T05:51:05;101984.44;;;23.30;100.00
48968;BME280;46511;53.148;8.204;2023-06-22T05:53:37;101990.97;;;23.08;100.00
48968;BME280;46511;53.148;8.204;2023-06-22T05:56:08;101982.25;;;22.95;100.00
48968;BME280;46511;53.148;8.204;2023-06-22T05:58:39;101979.94;;;23.59;100.00
48968;BME280;46511;53.148;8.204;2023-06-22T06:01:11;101979.00;;;23.20;100.00
48968;BME280;46511;53.148;8.204;2023-06-22T06:03:42;101976.19;;;23.51;100.00
48968;BME280;46511;53.148;8.204;2023-06-22T06:06:15;101970.22;;;23.67;100.00
48968;BME280;46511;53.148;8.204;2023-06-22T06:08:47;101974.41;;;24.27;100.00
48968;BME280;46511;53.148;8.204;2023-06-22T06:11:18;101971.03;;;23.96;100.00
48968;BME280;46511;53.148;8.204;2023-06-22T06:13:49;101971.28;;;24.22;100.00
48968;BME280;46511;53.148;8.204;2023-06-22T06:16:21;101960.03;;;24.07;100.00
48968;BME280;46511;53.148;8.204;2023-06-22T06:18:53;101963.34;;;23.82;100.00
48968;BME280;46511;53.148;8.204;2023-06-22T06:21:22;101959.72;;;24.10;100.00
48968;BME280;46511;53.148;8.204;2023-06-22T06:23:53;101965.84;;;24.32;100.00
48968;BME280;46511;53.148;8.204;2023-06-22T06:26:24;101959.34;;;24.52;100.00
48968;BME280;46511;53.148;8.204;2023-06-22T06:29:00;101965.19;;;24.57;100.00
48968;BME280;46511;53.148;8.204;2023-06-22T06:31:31;101951.31;;;25.15;100.00
48968;BME280;46511;53.148;8.204;2023-06-22T06:34:03;101947.44;;;25.35;100.00
48968;BME280;46511;53.148;8.204;2023-06-22T06:36:34;101943.47;;;26.09;100.00
48968;BME280;46511;53.148;8.204;2023-06-22T06:39:05;101950.88;;;26.85;100.00
48968;BME280;46511;53.148;8.204;2023-06-22T06:41:37;101954.50;;;27.69;99.67
48968;BME280;46511;53.148;8.204;2023-06-22T06:44:08;101949.47;;;28.77;92.08
48968;BME280;46511;53.148;8.204;2023-06-22T06:46:39;101941.34;;;29.76;83.09
48968;BME280;46511;53.148;8.204;2023-06-22T06:49:10;101947.56;;;30.82;78.01
48968;BME280;46511;53.148;8.204;2023-06-22T06:51:42;101944.81;;;30.08;79.30
48968;BME280;46511;53.148;8.204;2023-06-22T06:54:13;101940.13;;;30.61;77.99
48968;BME280;46511;53.148;8.204;2023-06-22T06:56:45;101946.03;;;31.30;73.46
48968;BME280;46511;53.148;8.204;2023-06-22T06:59:19;101941.84;;;31.34;64.41
48968;BME280;46511;53.148;8.204;2023-06-22T07:01:50;101937.16;;;31.28;64.23
48968;BME280;46511;53.148;8.204;2023-06-22T07:04:21;101936.31;;;31.98;65.42
48968;BME280;46511;53.148;8.204;2023-06-22T07:06:53;101935.22;;;31.93;64.83
48968;BME280;46511;53.148;8.204;2023-06-22T07:09:24;101933.88;;;31.82;61.04
48968;BME280;46511;53.148;8.204;2023-06-22T07:11:55;101931.78;;;31.84;56.28
48968;BME280;46511;53.148;8.204;2023-06-22T07:14:26;101937.28;;;32.47;57.03
48968;BME280;46511;53.148;8.204;2023-06-22T07:16:58;101931.25;;;32.64;53.61
48968;BME280;46511;53.148;8.204;2023-06-22T07:19:29;101928.63;;;32.97;51.56
48968;BME280;46511;53.148;8.204;2023-06-22T07:22:02;101930.06;;;33.74;51.04
48968;BME280;46511;53.148;8.204;2023-06-22T07:24:33;101923.91;;;33.46;52.49
48968;BME280;46511;53.148;8.204;2023-06-22T07:27:05;101914.56;;;33.73;46.41
48968;BME280;46511;53.148;8.204;2023-06-22T07:29:37;101914.63;;;34.64;43.91
48968;BME280;46511;53.148;8.204;2023-06-22T07:32:11;101922.28;;;34.62;45.46
48968;BME280;46511;53.148;8.204;2023-06-22T07:34:42;101924.44;;;33.15;47.80
48968;BME280;46511;53.148;8.204;2023-06-22T07:37:14;101920.50;;;34.81;43.44
48968;BME280;46511;53.148;8.204;2023-06-22T07:39:46;101910.69;;;34.21;44.11
48968;BME280;46511;53.148;8.204;2023-06-22T07:42:17;101906.09;;;36.72;38.33
48968;BME280;46511;53.148;8.204;2023-06-22T07:44:49;101913.97;;;37.47;36.32
48968;BME280;46511;53.148;8.204;2023-06-22T07:47:22;101906.06;;;36.42;38.59
48968;BME280;46511;53.148;8.204;2023-06-22T07:49:57;101913.53;;;35.17;39.53
48968;BME280;46511;53.148;8.204;2023-06-22T07:52:31;101911.28;;;35.32;40.42
48968;BME280;46511;53.148;8.204;2023-06-22T07:55:03;101916.91;;;36.74;39.77
48968;BME280;46511;53.148;8.204;2023-06-22T07:57:35;101912.94;;;36.33;37.45
48968;BME280;46511;53.148;8.204;2023-06-22T08:00:07;101903.50;;;37.07;37.22
48968;BME280;46511;53.148;8.204;2023-06-22T08:02:45;101893.78;;;38.69;33.94
48968;BME280;46511;53.148;8.204;2023-06-22T08:05:17;101886.25;;;38.17;32.92
48968;BME280;46511;53.148;8.204;2023-06-22T08:07:48;101896.59;;;35.38;37.31
48968;BME280;46511;53.148;8.204;2023-06-22T08:10:20;101891.13;;;37.87;35.98
48968;BME280;46511;53.148;8.204;2023-06-22T08:12:52;101882.69;;;37.93;34.01
48968;BME280;46511;53.148;8.204;2023-06-22T08:15:23;101881.44;;;38.24;33.13
48968;BME280;46511;53.148;8.204;2023-06-22T08:17:57;101874.56;;;38.27;33.12
48968;BME280;46511;53.148;8.204;2023-06-22T08:20:30;101867.94;;;38.97;32.17
48968;BME280;46511;53.148;8.204;2023-06-22T08:23:01;101869.03;;;37.80;32.11
48968;BME280;46511;53.148;8.204;2023-06-22T08:25:37;101871.16;;;37.43;34.24
48968;BME280;46511;53.148;8.204;2023-06-22T08:28:08;101877.28;;;36.43;35.33
48968;BME280;46511;53.148;8.204;2023-06-22T08:30:39;101874.41;;;35.70;37.40
48968;BME280;46511;53.148;8.204;2023-06-22T08:33:11;101875.34;;;34.69;39.83
48968;BME280;46511;53.148;8.204;2023-06-22T08:35:43;101877.63;;;34.79;40.35
48968;BME280;46511;53.148;8.204;2023-06-22T08:38:14;101877.56;;;34.92;40.06
48968;BME280;46511;53.148;8.204;2023-06-22T08:40:46;101881.75;;;36.44;37.68
48968;BME280;46511;53.148;8.204;2023-06-22T08:43:18;101876.72;;;34.33;45.00
48968;BME280;46511;53.148;8.204;2023-06-22T08:45:49;101872.91;;;36.36;38.42
48968;BME280;46511;53.148;8.204;2023-06-22T08:48:21;101872.22;;;36.58;37.55
48968;BME280;46511;53.148;8.204;2023-06-22T08:50:52;101867.91;;;36.44;39.50
48968;BME280;46511;53.148;8.204;2023-06-22T08:53:24;101859.78;;;35.44;40.53
48968;BME280;46511;53.148;8.204;2023-06-22T08:55:55;101870.53;;;36.21;36.85
48968;BME280;46511;53.148;8.204;2023-06-22T08:58:26;101860.47;;;38.28;35.41
48968;BME280;46511;53.148;8.204;2023-06-22T09:00:58;101872.03;;;37.55;36.83
48968;BME280;46511;53.148;8.204;2023-06-22T09:03:32;101855.69;;;39.26;32.84
48968;BME280;46511;53.148;8.204;2023-06-22T09:06:03;101861.91;;;39.17;31.51
48968;BME280;46511;53.148;8.204;2023-06-22T09:08:35;101857.44;;;36.10;36.94
48968;BME280;46511;53.148;8.204;2023-06-22T09:11:05;101851.03;;;38.29;33.64
48968;BME280;46511;53.148;8.204;2023-06-22T09:13:36;101865.28;;;36.68;36.01
48968;BME280;46511;53.148;8.204;2023-06-22T09:16:08;101860.22;;;34.78;38.81
48968;BME280;46511;53.148;8.204;2023-06-22T09:18:39;101852.81;;;37.18;35.50
48968;BME280;46511;53.148;8.204;2023-06-22T09:21:10;101848.47;;;38.40;33.50
48968;BME280;46511;53.148;8.204;2023-06-22T09:23:42;101851.56;;;38.03;33.14
48968;BME280;46511;53.148;8.204;2023-06-22T09:26:13;101842.53;;;39.22;32.52
48968;BME280;46511;53.148;8.204;2023-06-22T09:28:45;101832.72;;;39.86;32.13
48968;BME280;46511;53.148;8.204;2023-06-22T09:31:16;101835.06;;;38.37;31.68
48968;BME280;46511;53.148;8.204;2023-06-22T09:33:47;101828.41;;;37.86;32.98
48968;BME280;46511;53.148;8.204;2023-06-22T09:36:19;101819.53;;;40.42;32.85
48968;BME280;46511;53.148;8.204;2023-06-22T09:38:51;101828.88;;;39.20;31.30
48968;BME280;46511;53.148;8.204;2023-06-22T09:41:26;101818.75;;;40.25;29.20
48968;BME280;46511;53.148;8.204;2023-06-22T09:43:57;101816.69;;;39.93;29.59
48968;BME280;46511;53.148;8.204;2023-06-22T09:46:29;101816.16;;;40.40;30.31
48968;BME280;46511;53.148;8.204;2023-06-22T09:49:00;101818.41;;;37.85;32.52
48968;BME280;46511;53.148;8.204;2023-06-22T09:51:32;101816.47;;;38.37;32.51
48968;BME280;46511;53.148;8.204;2023-06-22T09:54:03;101814.41;;;37.69;34.05
48968;BME280;46511;53.148;8.204;2023-06-22T09:56:34;101808.19;;;38.25;33.99
48968;BME280;46511;53.148;8.204;2023-06-22T09:59:06;101805.97;;;39.63;31.53
48968;BME280;46511;53.148;8.204;2023-06-22T10:01:32;101804.75;;;39.76;29.70
48968;BME280;46511;53.148;8.204;2023-06-22T10:04:03;101801.28;;;40.08;31.11
48968;BME280;46511;53.148;8.204;2023-06-22T10:06:35;101797.78;;;37.57;33.27
48968;BME280;46511;53.148;8.204;2023-06-22T10:09:06;101791.53;;;38.82;32.82
48968;BME280;46511;53.148;8.204;2023-06-22T10:11:38;101790.09;;;39.81;30.39
48968;BME280;46511;53.148;8.204;2023-06-22T10:14:10;101790.84;;;38.47;32.09
48968;BME280;46511;53.148;8.204;2023-06-22T10:16:41;101790.13;;;38.97;31.96
48968;BME280;46511;53.148;8.204;2023-06-22T10:19:13;101792.13;;;39.01;31.12
48968;BME280;46511;53.148;8.204;2023-06-22T10:21:44;101797.88;;;37.15;33.50
48968;BME280;46511;53.148;8.204;2023-06-22T10:24:15;101784.25;;;37.96;32.91
48968;BME280;46511;53.148;8.204;2023-06-22T10:26:46;101787.34;;;41.10;29.54
48968;BME280;46511;53.148;8.204;2023-06-22T10:29:13;101800.75;;;40.54;28.65
48968;BME280;46511;53.148;8.204;2023-06-22T10:31:44;101781.25;;;41.14;29.67
48968;BME280;46511;53.148;8.204;2023-06-22T10:34:15;101783.47;;;38.98;30.48
48968;BME280;46511;53.148;8.204;2023-06-22T10:36:43;101782.53;;;40.20;30.28
48968;BME280;46511;53.148;8.204;2023-06-22T10:39:17;101763.44;;;41.20;28.43
48968;BME280;46511;53.148;8.204;2023-06-22T10:41:48;101778.25;;;40.61;29.31
48968;BME280;46511;53.148;8.204;2023-06-22T10:44:20;101770.13;;;41.19;29.21
48968;BME280;46511;53.148;8.204;2023-06-22T10:46:52;101763.75;;;41.65;29.06
48968;BME280;46511;53.148;8.204;2023-06-22T10:49:23;101770.56;;;41.37;28.92
48968;BME280;46511;53.148;8.204;2023-06-22T10:51:54;101760.81;;;41.35;27.47
48968;BME280;46511;53.148;8.204;2023-06-22T10:54:20;101757.41;;;43.45;26.21
48968;BME280;46511;53.148;8.204;2023-06-22T10:56:52;101758.84;;;41.83;26.58
48968;BME280;46511;53.148;8.204;2023-06-22T10:59:18;101755.38;;;40.32;30.04
48968;BME280;46511;53.148;8.204;2023-06-22T11:01:52;101746.78;;;38.50;32.16
48968;BME280;46511;53.148;8.204;2023-06-22T11:04:24;101740.84;;;38.18;33.10
48968;BME280;46511;53.148;8.204;2023-06-22T11:06:55;101748.00;;;39.38;29.96
48968;BME280;46511;53.148;8.204;2023-06-22T11:09:27;101746.53;;;41.79;28.24
48968;BME280;46511;53.148;8.204;2023-06-22T11:11:58;101749.63;;;40.98;29.03
48968;BME280;46511;53.148;8.204;2023-06-22T11:14:30;101739.09;;;42.00;28.73
48968;BME280;46511;53.148;8.204;2023-06-22T11:16:56;101747.13;;;39.93;28.07
48968;BME280;46511;53.148;8.204;2023-06-22T11:19:27;101743.81;;;40.72;28.11
48968;BME280;46511;53.148;8.204;2023-06-22T11:21:59;101742.47;;;39.05;29.79
48968;BME280;46511;53.148;8.204;2023-06-22T11:24:30;101742.78;;;38.58;30.55
48968;BME280;46511;53.148;8.204;2023-06-22T11:27:01;101740.25;;;39.79;29.73
48968;BME280;46511;53.148;8.204;2023-06-22T11:29:33;101732.81;;;40.07;29.98
48968;BME280;46511;53.148;8.204;2023-06-22T11:32:05;101740.66;;;40.64;28.78
48968;BME280;46511;53.148;8.204;2023-06-22T11:34:37;101715.41;;;41.07;27.96
48968;BME280;46511;53.148;8.204;2023-06-22T11:37:08;101722.84;;;40.65;28.62
48968;BME280;46511;53.148;8.204;2023-06-22T11:39:40;101716.78;;;42.10;27.78
48968;BME280;46511;53.148;8.204;2023-06-22T11:42:11;101712.69;;;41.18;28.40
48968;BME280;46511;53.148;8.204;2023-06-22T11:44:42;101707.50;;;40.08;28.87
48968;BME280;46511;53.148;8.204;2023-06-22T11:47:15;101697.25;;;41.00;28.00
48968;BME280;46511;53.148;8.204;2023-06-22T11:49:46;101698.69;;;42.12;27.46
48968;BME280;46511;53.148;8.204;2023-06-22T11:52:17;101705.44;;;43.13;26.44
48968;BME280;46511;53.148;8.204;2023-06-22T11:54:50;101711.50;;;39.13;29.77
48968;BME280;46511;53.148;8.204;2023-06-22T11:57:21;101713.69;;;37.16;33.54
48968;BME280;46511;53.148;8.204;2023-06-22T11:59:48;101711.91;;;35.35;37.55
48968;BME280;46511;53.148;8.204;2023-06-22T12:02:19;101723.13;;;34.27;40.29
48968;BME280;46511;53.148;8.204;2023-06-22T12:04:50;101718.16;;;33.13;47.30
48968;BME280;46511;53.148;8.204;2023-06-22T12:07:23;101721.13;;;32.04;53.87
48968;BME280;46511;53.148;8.204;2023-06-22T12:09:50;101719.19;;;31.98;55.15
48968;BME280;46511;53.148;8.204;2023-06-22T12:12:21;101717.47;;;31.21;58.78
48968;BME280;46511;53.148;8.204;2023-06-22T12:14:55;101699.38;;;31.27;62.08
48968;BME280;46511;53.148;8.204;2023-06-22T12:17:27;101706.22;;;31.44;59.42
48968;BME280;46511;53.148;8.204;2023-06-22T12:19:58;101699.63;;;30.61;63.51
48968;BME280;46511;53.148;8.204;2023-06-22T12:22:29;101699.56;;;30.76;66.59
48968;BME280;46511;53.148;8.204;2023-06-22T12:25:01;101692.75;;;30.93;64.50
48968;BME280;46511;53.148;8.204;2023-06-22T12:27:32;101698.63;;;31.46;67.67
48968;BME280;46511;53.148;8.204;2023-06-22T12:30:04;101689.72;;;31.10;66.63
48968;BME280;46511;53.148;8.204;2023-06-22T12:32:35;101703.13;;;31.26;65.44
48968;BME280;46511;53.148;8.204;2023-06-22T12:35:07;101691.31;;;30.76;70.18
48968;BME280;46511;53.148;8.204;2023-06-22T12:37:44;101691.41;;;31.39;68.62
48968;BME280;46511;53.148;8.204;2023-06-22T12:40:15;101688.03;;;31.43;67.82
48968;BME280;46511;53.148;8.204;2023-06-22T12:42:41;101686.25;;;30.73;68.46
48968;BME280;46511;53.148;8.204;2023-06-22T12:45:13;101671.66;;;31.22;67.20
48968;BME280;46511;53.148;8.204;2023-06-22T12:47:44;101671.97;;;31.40;66.46
48968;BME280;46511;53.148;8.204;2023-06-22T12:50:16;101660.09;;;30.77;69.99
48968;BME280;46511;53.148;8.204;2023-06-22T12:52:47;101664.59;;;30.63;68.04
48968;BME280;46511;53.148;8.204;2023-06-22T12:55:19;101661.13;;;31.67;66.48
48968;BME280;46511;53.148;8.204;2023-06-22T12:57:50;101651.53;;;31.97;63.34
48968;BME280;46511;53.148;8.204;2023-06-22T13:00:21;101643.09;;;33.51;52.87
48968;BME280;46511;53.148;8.204;2023-06-22T13:02:53;101649.19;;;34.11;53.83
48968;BME280;46511;53.148;8.204;2023-06-22T13:05:19;101645.63;;;33.59;52.08
48968;BME280;46511;53.148;8.204;2023-06-22T13:07:51;101640.59;;;33.30;54.91
48968;BME280;46511;53.148;8.204;2023-06-22T13:10:22;101639.41;;;32.79;58.60
48968;BME280;46511;53.148;8.204;2023-06-22T13:12:53;101647.13;;;32.03;62.05
48968;BME280;46511;53.148;8.204;2023-06-22T13:15:31;101644.25;;;32.44;63.50
48968;BME280;46511;53.148;8.204;2023-06-22T13:18:02;101644.97;;;31.92;69.03